Terminal Aerodrome Forecast
Issued by NWS

Home | Current Version | Previous Version | Text Only | Print | Product List | Glossary On
Versions: 1 2 3 4 5 6 7 8 9 10 11 12 13
000
FTUS45 KABQ 200520
TAFSAF
TAF
KSAF 200520Z 2006/2106 14011KT P6SM BKN140
     FM200900 01006KT P6SM BKN090
     FM202000 20010KT P6SM VCSH OVC090
     FM202230 17012G22KT 5SM -TSRA SCT025 BKN050CB
     FM210100 14011KT 6SM -SHRA SCT030 BKN050
     FM210400 36009KT P6SM VCSH SCT040 BKN090=

USA.gov is the U.S. government's official web portal to all federal, state and local government web resources and services.